sensor_id;sensor_type;location;lat;lon;timestamp;pressure;altitude;pressure_sealevel;temperature;humidity
74542;BME280;63015;45.378;20.360;2023-04-07T00:01:10;100607.69;;;4.20;71.04
74542;BME280;63015;45.378;20.360;2023-04-07T00:03:11;100608.53;;;4.21;71.02
74542;BME280;63015;45.378;20.360;2023-04-07T00:05:12;100606.84;;;4.21;70.92
74542;BME280;63015;45.378;20.360;2023-04-07T00:07:12;100600.78;;;4.21;70.89
74542;BME280;63015;45.378;20.360;2023-04-07T00:09:13;100599.00;;;4.18;71.05
74542;BME280;63015;45.378;20.360;2023-04-07T00:11:13;100608.50;;;4.19;70.86
74542;BME280;63015;45.378;20.360;2023-04-07T00:13:14;100606.66;;;4.15;71.45
74542;BME280;63015;45.378;20.360;2023-04-07T00:15:15;100599.84;;;4.17;71.14
74542;BME280;63015;45.378;20.360;2023-04-07T00:17:16;100597.25;;;4.17;71.09
74542;BME280;63015;45.378;20.360;2023-04-07T00:19:16;100597.31;;;4.19;71.04
74542;BME280;63015;45.378;20.360;2023-04-07T00:21:17;100593.84;;;4.18;70.71
74542;BME280;63015;45.378;20.360;2023-04-07T00:23:17;100597.34;;;4.20;70.74
74542;BME280;63015;45.378;20.360;2023-04-07T00:25:19;100594.75;;;4.19;70.95
74542;BME280;63015;45.378;20.360;2023-04-07T00:27:19;100590.44;;;4.19;70.84
74542;BME280;63015;45.378;20.360;2023-04-07T00:29:20;100590.44;;;4.19;71.02
74542;BME280;63015;45.378;20.360;2023-04-07T00:31:20;100594.78;;;4.20;70.92
74542;BME280;63015;45.378;20.360;2023-04-07T00:33:21;100596.53;;;4.21;70.93
74542;BME280;63015;45.378;20.360;2023-04-07T00:35:22;100591.44;;;4.24;70.67
74542;BME280;63015;45.378;20.360;2023-04-07T00:37:22;100592.31;;;4.25;70.84
74542;BME280;63015;45.378;20.360;2023-04-07T00:39:24;100596.59;;;4.24;70.69
74542;BME280;63015;45.378;20.360;2023-04-07T00:41:26;100588.84;;;4.23;71.03
74542;BME280;63015;45.378;20.360;2023-04-07T00:43:27;100593.16;;;4.24;71.23
74542;BME280;63015;45.378;20.360;2023-04-07T00:45:30;100583.66;;;4.23;70.89
74542;BME280;63015;45.378;20.360;2023-04-07T00:47:31;100582.88;;;4.25;70.85
74542;BME280;63015;45.378;20.360;2023-04-07T00:49:31;100586.34;;;4.27;70.53
74542;BME280;63015;45.378;20.360;2023-04-07T00:51:32;100579.50;;;4.28;70.68
74542;BME280;63015;45.378;20.360;2023-04-07T00:53:33;100576.97;;;4.30;70.72
74542;BME280;63015;45.378;20.360;2023-04-07T00:55:36;100575.25;;;4.30;70.68
74542;BME280;63015;45.378;20.360;2023-04-07T00:57:36;100574.38;;;4.30;70.88
74542;BME280;63015;45.378;20.360;2023-04-07T00:59:40;100577.81;;;4.30;71.13
74542;BME280;63015;45.378;20.360;2023-04-07T01:02:01;100572.63;;;4.28;70.75
74542;BME280;63015;45.378;20.360;2023-04-07T01:04:10;100573.44;;;4.27;70.84
74542;BME280;63015;45.378;20.360;2023-04-07T01:06:15;100571.78;;;4.28;70.59
74542;BME280;63015;45.378;20.360;2023-04-07T01:08:23;100570.00;;;4.27;70.83
74542;BME280;63015;45.378;20.360;2023-04-07T01:10:34;100575.13;;;4.25;70.63
74542;BME280;63015;45.378;20.360;2023-04-07T01:15:10;100567.28;;;4.22;71.01
74542;BME280;63015;45.378;20.360;2023-04-07T01:17:18;100577.75;;;4.27;71.08
74542;BME280;63015;45.378;20.360;2023-04-07T01:19:36;100568.28;;;4.27;71.31
74542;BME280;63015;45.378;20.360;2023-04-07T01:21:39;100567.50;;;4.30;70.84
74542;BME280;63015;45.378;20.360;2023-04-07T01:23:57;100566.69;;;4.31;71.00
74542;BME280;63015;45.378;20.360;2023-04-07T01:30:35;100568.38;;;4.29;71.40
74542;BME280;63015;45.378;20.360;2023-04-07T01:32:39;100573.41;;;4.26;71.71
74542;BME280;63015;45.378;20.360;2023-04-07T01:34:41;100568.16;;;4.21;72.30
74542;BME280;63015;45.378;20.360;2023-04-07T01:36:42;100559.28;;;4.11;72.69
74542;BME280;63015;45.378;20.360;2023-04-07T01:38:44;100561.13;;;4.17;72.24
74542;BME280;63015;45.378;20.360;2023-04-07T01:40:46;100566.16;;;4.11;73.17
74542;BME280;63015;45.378;20.360;2023-04-07T01:42:47;100552.50;;;4.15;72.50
74542;BME280;63015;45.378;20.360;2023-04-07T01:44:49;100563.69;;;4.16;73.03
74542;BME280;63015;45.378;20.360;2023-04-07T01:46:51;100563.38;;;4.03;73.54
74542;BME280;63015;45.378;20.360;2023-04-07T01:48:52;100561.69;;;4.05;73.14
74542;BME280;63015;45.378;20.360;2023-04-07T01:50:54;100559.50;;;3.89;73.99
74542;BME280;63015;45.378;20.360;2023-04-07T01:52:55;100564.88;;;3.66;75.13
74542;BME280;63015;45.378;20.360;2023-04-07T01:54:56;100560.78;;;3.73;74.99
74542;BME280;63015;45.378;20.360;2023-04-07T01:56:58;100559.53;;;3.60;75.79
74542;BME280;63015;45.378;20.360;2023-04-07T01:58:59;100555.22;;;3.59;75.37
74542;BME280;63015;45.378;20.360;2023-04-07T02:00:59;100558.53;;;3.55;75.84
74542;BME280;63015;45.378;20.360;2023-04-07T02:03:12;100562.16;;;3.61;75.38
74542;BME280;63015;45.378;20.360;2023-04-07T02:05:20;100551.22;;;3.69;75.15
74542;BME280;63015;45.378;20.360;2023-04-07T02:07:50;100552.97;;;3.70;75.08
74542;BME280;63015;45.378;20.360;2023-04-07T02:09:56;100552.03;;;3.68;74.69
74542;BME280;63015;45.378;20.360;2023-04-07T02:11:59;100549.38;;;3.65;74.94
74542;BME280;63015;45.378;20.360;2023-04-07T02:14:05;100553.63;;;3.64;74.70
74542;BME280;63015;45.378;20.360;2023-04-07T02:16:15;100556.81;;;3.55;75.20
74542;BME280;63015;45.378;20.360;2023-04-07T02:18:16;100548.47;;;3.64;74.40
74542;BME280;63015;45.378;20.360;2023-04-07T02:20:20;100553.94;;;3.44;75.18
74542;BME280;63015;45.378;20.360;2023-04-07T02:22:21;100556.72;;;3.23;75.71
74542;BME280;63015;45.378;20.360;2023-04-07T02:24:22;100551.03;;;3.34;75.04
74542;BME280;63015;45.378;20.360;2023-04-07T02:26:22;100557.25;;;3.40;74.68
74542;BME280;63015;45.378;20.360;2023-04-07T02:28:23;100550.41;;;3.42;74.86
74542;BME280;63015;45.378;20.360;2023-04-07T02:30:24;100548.69;;;3.41;74.89
74542;BME280;63015;45.378;20.360;2023-04-07T02:32:25;100553.31;;;3.24;75.27
74542;BME280;63015;45.378;20.360;2023-04-07T02:34:25;100553.22;;;3.21;75.94
74542;BME280;63015;45.378;20.360;2023-04-07T02:36:26;100546.66;;;3.31;75.40
74542;BME280;63015;45.378;20.360;2023-04-07T02:38:27;100545.03;;;3.35;74.84
74542;BME280;63015;45.378;20.360;2023-04-07T02:40:30;100543.53;;;3.41;74.20
74542;BME280;63015;45.378;20.360;2023-04-07T02:42:30;100540.31;;;3.49;74.47
74542;BME280;63015;45.378;20.360;2023-04-07T02:44:31;100546.25;;;3.46;74.72
74542;BME280;63015;45.378;20.360;2023-04-07T02:46:31;100542.88;;;3.49;74.09
74542;BME280;63015;45.378;20.360;2023-04-07T02:48:32;100548.94;;;3.49;74.07
74542;BME280;63015;45.378;20.360;2023-04-07T02:50:32;100548.69;;;3.41;75.13
74542;BME280;63015;45.378;20.360;2023-04-07T02:52:33;100547.94;;;3.45;74.67
74542;BME280;63015;45.378;20.360;2023-04-07T02:54:38;100535.97;;;3.48;74.53
74542;BME280;63015;45.378;20.360;2023-04-07T02:56:39;100540.34;;;3.50;74.63
74542;BME280;63015;45.378;20.360;2023-04-07T02:58:39;100549.59;;;3.43;75.52
74542;BME280;63015;45.378;20.360;2023-04-07T03:00:40;100557.91;;;3.35;75.14
74542;BME280;63015;45.378;20.360;2023-04-07T03:02:45;100551.31;;;3.43;74.58
74542;BME280;63015;45.378;20.360;2023-04-07T03:04:46;100548.81;;;3.46;74.56
74542;BME280;63015;45.378;20.360;2023-04-07T03:06:46;100554.66;;;3.40;75.32
74542;BME280;63015;45.378;20.360;2023-04-07T03:08:49;100543.91;;;3.25;75.80
74542;BME280;63015;45.378;20.360;2023-04-07T03:10:49;100553.69;;;3.37;74.67
74542;BME280;63015;45.378;20.360;2023-04-07T03:12:56;100554.16;;;3.23;76.09
74542;BME280;63015;45.378;20.360;2023-04-07T03:14:56;100550.06;;;3.30;75.25
74542;BME280;63015;45.378;20.360;2023-04-07T03:16:58;100546.56;;;3.28;75.78
74542;BME280;63015;45.378;20.360;2023-04-07T03:18:59;100543.16;;;3.29;76.12
74542;BME280;63015;45.378;20.360;2023-04-07T03:21:02;100545.19;;;3.39;75.15
74542;BME280;63015;45.378;20.360;2023-04-07T03:23:04;100546.19;;;3.44;75.28
74542;BME280;63015;45.378;20.360;2023-04-07T03:25:05;100545.25;;;3.42;76.05
74542;BME280;63015;45.378;20.360;2023-04-07T03:27:06;100541.38;;;3.26;76.33
74542;BME280;63015;45.378;20.360;2023-04-07T03:29:13;100556.03;;;3.29;76.38
74542;BME280;63015;45.378;20.360;2023-04-07T03:31:15;100549.28;;;3.33;75.94
74542;BME280;63015;45.378;20.360;2023-04-07T03:33:16;100556.34;;;3.40;75.14
74542;BME280;63015;45.378;20.360;2023-04-07T03:35:16;100551.16;;;3.38;75.04
74542;BME280;63015;45.378;20.360;2023-04-07T03:37:18;100554.78;;;3.45;74.30
74542;BME280;63015;45.378;20.360;2023-04-07T03:39:19;100550.97;;;3.32;75.14
74542;BME280;63015;45.378;20.360;2023-04-07T03:41:20;100556.50;;;3.44;74.23
74542;BME280;63015;45.378;20.360;2023-04-07T03:43:23;100553.16;;;3.47;74.67
74542;BME280;63015;45.378;20.360;2023-04-07T03:45:23;100553.19;;;3.49;74.33
74542;BME280;63015;45.378;20.360;2023-04-07T03:47:26;100561.72;;;3.48;74.36
74542;BME280;63015;45.378;20.360;2023-04-07T03:49:31;100559.28;;;3.51;74.52
74542;BME280;63015;45.378;20.360;2023-04-07T03:51:35;100559.34;;;3.54;74.43
74542;BME280;63015;45.378;20.360;2023-04-07T03:53:39;100560.91;;;3.49;75.14
74542;BME280;63015;45.378;20.360;2023-04-07T03:55:54;100565.31;;;3.24;76.24
74542;BME280;63015;45.378;20.360;2023-04-07T03:58:10;100566.41;;;3.32;75.84
74542;BME280;63015;45.378;20.360;2023-04-07T04:00:12;100562.28;;;3.37;75.59
74542;BME280;63015;45.378;20.360;2023-04-07T04:02:28;100559.63;;;3.34;75.82
74542;BME280;63015;45.378;20.360;2023-04-07T04:04:29;100568.06;;;3.28;75.99
74542;BME280;63015;45.378;20.360;2023-04-07T04:06:31;100564.31;;;3.19;76.61
74542;BME280;63015;45.378;20.360;2023-04-07T04:08:46;100558.56;;;3.27;75.92
74542;BME280;63015;45.378;20.360;2023-04-07T04:10:47;100567.75;;;3.19;76.33
74542;BME280;63015;45.378;20.360;2023-04-07T04:12:50;100568.47;;;3.15;77.39
74542;BME280;63015;45.378;20.360;2023-04-07T04:14:52;100566.84;;;3.17;76.86
74542;BME280;63015;45.378;20.360;2023-04-07T04:16:53;100567.63;;;3.15;76.72
74542;BME280;63015;45.378;20.360;2023-04-07T04:19:01;100574.31;;;3.09;76.88
74542;BME280;63015;45.378;20.360;2023-04-07T04:21:04;100578.66;;;3.10;77.00
74542;BME280;63015;45.378;20.360;2023-04-07T04:23:06;100577.91;;;3.15;76.63
74542;BME280;63015;45.378;20.360;2023-04-07T04:25:08;100569.63;;;3.23;75.81
74542;BME280;63015;45.378;20.360;2023-04-07T04:27:10;100578.34;;;3.28;76.12
74542;BME280;63015;45.378;20.360;2023-04-07T04:29:10;100591.78;;;3.18;76.68
74542;BME280;63015;45.378;20.360;2023-04-07T04:31:12;100584.94;;;3.20;76.74
74542;BME280;63015;45.378;20.360;2023-04-07T04:33:17;100585.16;;;3.26;76.29
74542;BME280;63015;45.378;20.360;2023-04-07T04:35:26;100592.13;;;3.31;76.36
74542;BME280;63015;45.378;20.360;2023-04-07T04:37:40;100588.25;;;3.16;76.68
74542;BME280;63015;45.378;20.360;2023-04-07T04:39:44;100595.13;;;3.16;76.80
74542;BME280;63015;45.378;20.360;2023-04-07T04:41:47;100595.38;;;3.23;76.43
74542;BME280;63015;45.378;20.360;2023-04-07T04:43:49;100597.09;;;2.97;77.65
74542;BME280;63015;45.378;20.360;2023-04-07T04:45:55;100597.44;;;3.08;76.94
74542;BME280;63015;45.378;20.360;2023-04-07T04:47:59;100598.28;;;3.07;77.20
74542;BME280;63015;45.378;20.360;2023-04-07T04:49:59;100600.84;;;3.07;76.86
74542;BME280;63015;45.378;20.360;2023-04-07T04:52:01;100601.91;;;3.13;76.74
74542;BME280;63015;45.378;20.360;2023-04-07T04:54:04;100605.44;;;3.16;76.66
74542;BME280;63015;45.378;20.360;2023-04-07T04:56:06;100600.53;;;3.23;76.25
74542;BME280;63015;45.378;20.360;2023-04-07T04:58:13;100594.97;;;3.11;76.93
74542;BME280;63015;45.378;20.360;2023-04-07T05:00:20;100599.50;;;3.18;76.64
74542;BME280;63015;45.378;20.360;2023-04-07T05:02:26;100606.34;;;3.18;76.43
74542;BME280;63015;45.378;20.360;2023-04-07T05:04:30;100606.34;;;3.18;76.35
74542;BME280;63015;45.378;20.360;2023-04-07T05:06:38;100609.09;;;3.24;75.73
74542;BME280;63015;45.378;20.360;2023-04-07T05:08:44;100617.97;;;3.06;77.19
74542;BME280;63015;45.378;20.360;2023-04-07T05:10:45;100612.94;;;3.09;77.00
74542;BME280;63015;45.378;20.360;2023-04-07T05:12:48;100614.25;;;2.96;77.66
74542;BME280;63015;45.378;20.360;2023-04-07T05:14:48;100617.19;;;3.09;76.81
74542;BME280;63015;45.378;20.360;2023-04-07T05:16:49;100607.78;;;3.09;77.18
74542;BME280;63015;45.378;20.360;2023-04-07T05:18:54;100613.28;;;3.20;76.58
74542;BME280;63015;45.378;20.360;2023-04-07T05:20:57;100622.31;;;3.35;76.02
74542;BME280;63015;45.378;20.360;2023-04-07T05:22:59;100618.97;;;3.37;75.93
74542;BME280;63015;45.378;20.360;2023-04-07T05:25:05;100625.69;;;3.06;77.43
74542;BME280;63015;45.378;20.360;2023-04-07T05:27:06;100625.16;;;2.89;78.20
74542;BME280;63015;45.378;20.360;2023-04-07T05:29:07;100629.53;;;2.92;77.90
74542;BME280;63015;45.378;20.360;2023-04-07T05:31:08;100631.22;;;3.17;77.04
74542;BME280;63015;45.378;20.360;2023-04-07T05:33:09;100636.41;;;3.19;77.07
74542;BME280;63015;45.378;20.360;2023-04-07T05:35:15;100629.50;;;3.18;76.92
74542;BME280;63015;45.378;20.360;2023-04-07T05:37:23;100633.16;;;2.99;77.62
74542;BME280;63015;45.378;20.360;2023-04-07T05:39:24;100638.22;;;3.21;76.87
74542;BME280;63015;45.378;20.360;2023-04-07T05:41:28;100638.66;;;3.35;76.69
74542;BME280;63015;45.378;20.360;2023-04-07T05:43:29;100642.03;;;3.33;76.82
74542;BME280;63015;45.378;20.360;2023-04-07T05:45:29;100639.53;;;3.36;76.57
74542;BME280;63015;45.378;20.360;2023-04-07T05:47:30;100645.03;;;3.47;76.07
74542;BME280;63015;45.378;20.360;2023-04-07T05:49:31;100637.59;;;3.56;75.71
74542;BME280;63015;45.378;20.360;2023-04-07T05:51:38;100644.44;;;3.55;76.53
74542;BME280;63015;45.378;20.360;2023-04-07T05:53:44;100638.25;;;3.50;76.05
74542;BME280;63015;45.378;20.360;2023-04-07T05:55:45;100646.97;;;3.54;76.33
74542;BME280;63015;45.378;20.360;2023-04-07T05:57:58;100643.09;;;3.68;75.58
74542;BME280;63015;45.378;20.360;2023-04-07T06:00:03;100643.22;;;3.71;75.38
74542;BME280;63015;45.378;20.360;2023-04-07T06:02:14;100644.97;;;3.72;75.59
74542;BME280;63015;45.378;20.360;2023-04-07T06:04:16;100651.94;;;3.75;75.11
74542;BME280;63015;45.378;20.360;2023-04-07T06:06:19;100648.44;;;3.74;75.18
74542;BME280;63015;45.378;20.360;2023-04-07T06:08:20;100637.47;;;3.80;74.96
74542;BME280;63015;45.378;20.360;2023-04-07T06:10:20;100647.88;;;3.83;75.41
74542;BME280;63015;45.378;20.360;2023-04-07T06:12:21;100647.72;;;3.78;75.17
74542;BME280;63015;45.378;20.360;2023-04-07T06:14:27;100644.19;;;3.75;75.05
74542;BME280;63015;45.378;20.360;2023-04-07T06:16:30;100642.09;;;3.63;75.37
74542;BME280;63015;45.378;20.360;2023-04-07T06:18:31;100634.81;;;3.78;74.92
74542;BME280;63015;45.378;20.360;2023-04-07T06:20:32;100644.50;;;3.86;74.93
74542;BME280;63015;45.378;20.360;2023-04-07T06:22:33;100639.97;;;3.78;75.13
74542;BME280;63015;45.378;20.360;2023-04-07T06:24:36;100643.91;;;3.94;74.68
74542;BME280;63015;45.378;20.360;2023-04-07T06:26:38;100639.25;;;3.83;74.58
74542;BME280;63015;45.378;20.360;2023-04-07T06:28:39;100640.50;;;3.95;74.61
74542;BME280;63015;45.378;20.360;2023-04-07T06:30:40;100645.78;;;4.00;74.51
74542;BME280;63015;45.378;20.360;2023-04-07T06:32:43;100644.88;;;3.98;74.71
74542;BME280;63015;45.378;20.360;2023-04-07T06:34:44;100641.63;;;4.05;74.45
74542;BME280;63015;45.378;20.360;2023-04-07T06:36:45;100645.50;;;3.91;74.16
74542;BME280;63015;45.378;20.360;2023-04-07T06:38:45;100646.16;;;3.84;74.40
74542;BME280;63015;45.378;20.360;2023-04-07T06:40:46;100650.13;;;4.01;73.83
74542;BME280;63015;45.378;20.360;2023-04-07T06:42:46;100647.53;;;4.01;74.27
74542;BME280;63015;45.378;20.360;2023-04-07T06:44:58;100651.97;;;3.76;75.23
74542;BME280;63015;45.378;20.360;2023-04-07T06:46:58;100650.84;;;3.97;74.32
74542;BME280;63015;45.378;20.360;2023-04-07T06:48:59;100651.09;;;4.05;73.82
74542;BME280;63015;45.378;20.360;2023-04-07T06:51:02;100656.81;;;3.94;73.79
74542;BME280;63015;45.378;20.360;2023-04-07T06:53:03;100656.31;;;4.08;73.56
74542;BME280;63015;45.378;20.360;2023-04-07T06:55:04;100654.78;;;4.15;73.32
74542;BME280;63015;45.378;20.360;2023-04-07T06:57:05;100662.75;;;3.92;74.19
74542;BME280;63015;45.378;20.360;2023-04-07T06:59:11;100663.22;;;4.09;73.84
74542;BME280;63015;45.378;20.360;2023-04-07T07:01:11;100670.56;;;3.66;75.13
74542;BME280;63015;45.378;20.360;2023-04-07T07:03:14;100664.03;;;3.77;74.80
74542;BME280;63015;45.378;20.360;2023-04-07T07:05:15;100669.47;;;3.87;74.76
74542;BME280;63015;45.378;20.360;2023-04-07T07:07:16;100674.50;;;3.55;75.49
74542;BME280;63015;45.378;20.360;2023-04-07T07:09:16;100674.34;;;3.77;75.17
74542;BME280;63015;45.378;20.360;2023-04-07T07:11:17;100681.75;;;3.95;74.74
74542;BME280;63015;45.378;20.360;2023-04-07T07:13:18;100685.16;;;3.94;74.48
74542;BME280;63015;45.378;20.360;2023-04-07T07:15:19;100687.06;;;4.02;74.27
74542;BME280;63015;45.378;20.360;2023-04-07T07:17:19;100690.06;;;4.16;73.85
74542;BME280;63015;45.378;20.360;2023-04-07T07:19:20;100691.00;;;4.18;73.64
74542;BME280;63015;45.378;20.360;2023-04-07T07:21:20;100689.06;;;4.10;73.68
74542;BME280;63015;45.378;20.360;2023-04-07T07:23:21;100692.63;;;4.14;73.55
74542;BME280;63015;45.378;20.360;2023-04-07T07:25:21;100695.16;;;4.13;73.47
74542;BME280;63015;45.378;20.360;2023-04-07T07:27:22;100695.28;;;4.17;73.13
74542;BME280;63015;45.378;20.360;2023-04-07T07:29:22;100686.06;;;4.25;73.36
74542;BME280;63015;45.378;20.360;2023-04-07T07:31:23;100686.50;;;4.41;72.94
74542;BME280;63015;45.378;20.360;2023-04-07T07:33:24;100692.91;;;4.54;72.56
74542;BME280;63015;45.378;20.360;2023-04-07T07:35:24;100690.53;;;4.61;72.91
74542;BME280;63015;45.378;20.360;2023-04-07T07:37:25;100693.31;;;4.69;71.97
74542;BME280;63015;45.378;20.360;2023-04-07T07:39:26;100697.34;;;4.59;72.14
74542;BME280;63015;45.378;20.360;2023-04-07T07:41:26;100695.59;;;4.58;72.18
74542;BME280;63015;45.378;20.360;2023-04-07T07:43:27;100693.94;;;4.60;72.23
74542;BME280;63015;45.378;20.360;2023-04-07T07:45:28;100694.28;;;4.73;72.02
74542;BME280;63015;45.378;20.360;2023-04-07T07:47:28;100701.34;;;4.80;72.01
74542;BME280;63015;45.378;20.360;2023-04-07T07:49:29;100703.13;;;4.83;72.09
74542;BME280;63015;45.378;20.360;2023-04-07T07:51:30;100701.25;;;4.75;71.86
74542;BME280;63015;45.378;20.360;2023-04-07T07:53:30;100698.78;;;4.82;71.50
74542;BME280;63015;45.378;20.360;2023-04-07T07:55:31;100707.28;;;4.77;71.67
74542;BME280;63015;45.378;20.360;2023-04-07T07:57:31;100705.84;;;4.87;71.42
74542;BME280;63015;45.378;20.360;2023-04-07T07:59:35;100705.31;;;5.01;71.10
74542;BME280;63015;45.378;20.360;2023-04-07T08:01:36;100707.94;;;5.02;70.75
74542;BME280;63015;45.378;20.360;2023-04-07T08:03:36;100706.75;;;5.23;70.89
74542;BME280;63015;45.378;20.360;2023-04-07T08:05:37;100712.84;;;5.25;70.82
74542;BME280;63015;45.378;20.360;2023-04-07T08:07:37;100713.00;;;5.31;70.41
74542;BME280;63015;45.378;20.360;2023-04-07T08:09:38;100716.78;;;5.44;69.82
74542;BME280;63015;45.378;20.360;2023-04-07T08:11:38;100707.38;;;5.48;68.82
74542;BME280;63015;45.378;20.360;2023-04-07T08:13:39;100714.44;;;5.55;68.53
74542;BME280;63015;45.378;20.360;2023-04-07T08:15:43;100718.25;;;5.69;68.60
74542;BME280;63015;45.378;20.360;2023-04-07T08:17:44;100714.47;;;5.21;68.91
74542;BME280;63015;45.378;20.360;2023-04-07T08:19:44;100722.00;;;5.47;68.75
74542;BME280;63015;45.378;20.360;2023-04-07T08:21:45;100714.34;;;5.50;68.89
74542;BME280;63015;45.378;20.360;2023-04-07T08:23:54;100713.59;;;5.56;69.03
74542;BME280;63015;45.378;20.360;2023-04-07T08:25:55;100721.63;;;5.67;68.27
74542;BME280;63015;45.378;20.360;2023-04-07T08:27:56;100716.56;;;5.71;68.56
74542;BME280;63015;45.378;20.360;2023-04-07T08:30:01;100721.06;;;5.79;67.86
74542;BME280;63015;45.378;20.360;2023-04-07T08:32:03;100717.91;;;5.92;68.30
74542;BME280;63015;45.378;20.360;2023-04-07T08:34:03;100713.66;;;5.96;66.88
74542;BME280;63015;45.378;20.360;2023-04-07T08:36:04;100712.94;;;5.63;67.19
74542;BME280;63015;45.378;20.360;2023-04-07T08:38:05;100721.91;;;5.79;67.56
74542;BME280;63015;45.378;20.360;2023-04-07T08:40:07;100721.44;;;5.96;67.40
74542;BME280;63015;45.378;20.360;2023-04-07T08:42:07;100722.41;;;5.99;67.03
74542;BME280;63015;45.378;20.360;2023-04-07T08:44:14;100727.44;;;5.95;66.18
74542;BME280;63015;45.378;20.360;2023-04-07T08:46:17;100725.25;;;6.12;66.77
74542;BME280;63015;45.378;20.360;2023-04-07T08:48:21;100722.59;;;6.07;65.86
74542;BME280;63015;45.378;20.360;2023-04-07T08:50:25;100722.13;;;6.27;66.55
74542;BME280;63015;45.378;20.360;2023-04-07T08:52:33;100727.03;;;6.54;65.96
74542;BME280;63015;45.378;20.360;2023-04-07T08:54:34;100722.28;;;6.75;65.02
74542;BME280;63015;45.378;20.360;2023-04-07T08:56:37;100723.84;;;6.67;64.75
74542;BME280;63015;45.378;20.360;2023-04-07T08:58:40;100727.25;;;6.65;63.12
74542;BME280;63015;45.378;20.360;2023-04-07T09:00:42;100728.38;;;6.78;63.72
74542;BME280;63015;45.378;20.360;2023-04-07T09:02:46;100727.66;;;6.86;64.48
74542;BME280;63015;45.378;20.360;2023-04-07T09:04:48;100729.50;;;6.92;65.06
74542;BME280;63015;45.378;20.360;2023-04-07T09:06:49;100735.53;;;6.47;63.51
74542;BME280;63015;45.378;20.360;2023-04-07T09:08:49;100727.78;;;6.48;64.60
74542;BME280;63015;45.378;20.360;2023-04-07T09:10:50;100729.34;;;5.65;65.45
74542;BME280;63015;45.378;20.360;2023-04-07T09:12:51;100735.03;;;5.50;66.22
74542;BME280;63015;45.378;20.360;2023-04-07T09:14:52;100740.28;;;5.90;66.36
74542;BME280;63015;45.378;20.360;2023-04-07T09:16:53;100730.81;;;6.29;65.74
74542;BME280;63015;45.378;20.360;2023-04-07T09:18:55;100738.59;;;6.29;65.63
74542;BME280;63015;45.378;20.360;2023-04-07T09:21:03;100739.94;;;6.13;64.59
74542;BME280;63015;45.378;20.360;2023-04-07T09:23:04;100738.22;;;5.76;66.24
74542;BME280;63015;45.378;20.360;2023-04-07T09:25:20;100733.78;;;5.69;66.66
74542;BME280;63015;45.378;20.360;2023-04-07T09:27:26;100739.09;;;6.12;66.22
74542;BME280;63015;45.378;20.360;2023-04-07T09:29:27;100736.56;;;6.15;65.70
74542;BME280;63015;45.378;20.360;2023-04-07T09:31:44;100745.38;;;5.50;65.71
74542;BME280;63015;45.378;20.360;2023-04-07T09:33:47;100741.59;;;5.72;65.93
74542;BME280;63015;45.378;20.360;2023-04-07T09:35:51;100745.41;;;5.88;64.74
74542;BME280;63015;45.378;20.360;2023-04-07T09:38:07;100748.50;;;6.08;65.03
74542;BME280;63015;45.378;20.360;2023-04-07T09:40:08;100742.84;;;6.27;65.29
74542;BME280;63015;45.378;20.360;2023-04-07T09:42:09;100741.50;;;6.44;64.44
74542;BME280;63015;45.378;20.360;2023-04-07T09:44:09;100740.53;;;6.39;64.01
74542;BME280;63015;45.378;20.360;2023-04-07T09:46:18;100744.19;;;6.50;63.96
74542;BME280;63015;45.378;20.360;2023-04-07T09:48:20;100745.31;;;6.62;63.75
74542;BME280;63015;45.378;20.360;2023-04-07T09:50:39;100747.22;;;6.70;63.32
74542;BME280;63015;45.378;20.360;2023-04-07T09:52:52;100745.03;;;6.92;62.53
74542;BME280;63015;45.378;20.360;2023-04-07T09:54:53;100741.69;;;6.98;63.12
74542;BME280;63015;45.378;20.360;2023-04-07T09:56:55;100746.16;;;7.05;62.60
74542;BME280;63015;45.378;20.360;2023-04-07T09:58:57;100743.72;;;7.14;62.17
74542;BME280;63015;45.378;20.360;2023-04-07T10:00:58;100750.91;;;7.29;62.12
74542;BME280;63015;45.378;20.360;2023-04-07T10:02:59;100754.31;;;7.27;61.46
74542;BME280;63015;45.378;20.360;2023-04-07T10:05:00;100755.81;;;6.69;63.06
74542;BME280;63015;45.378;20.360;2023-04-07T10:07:00;100747.72;;;6.97;62.38
74542;BME280;63015;45.378;20.360;2023-04-07T10:09:02;100748.75;;;7.05;62.33
74542;BME280;63015;45.378;20.360;2023-04-07T10:11:04;100753.22;;;7.14;61.46
74542;BME280;63015;45.378;20.360;2023-04-07T10:13:05;100747.63;;;6.92;61.73
74542;BME280;63015;45.378;20.360;2023-04-07T10:15:06;100744.88;;;6.83;61.50
74542;BME280;63015;45.378;20.360;2023-04-07T10:17:07;100753.50;;;6.83;62.43
74542;BME280;63015;45.378;20.360;2023-04-07T10:19:08;100751.03;;;6.88;62.32
74542;BME280;63015;45.378;20.360;2023-04-07T10:21:09;100758.28;;;7.07;62.43
74542;BME280;63015;45.378;20.360;2023-04-07T10:24:02;100745.94;;;6.94;60.91
74542;BME280;63015;45.378;20.360;2023-04-07T10:26:07;100747.69;;;6.95;61.10
74542;BME280;63015;45.378;20.360;2023-04-07T10:28:09;100752.06;;;6.99;61.74
74542;BME280;63015;45.378;20.360;2023-04-07T10:30:12;100755.47;;;6.95;61.60
74542;BME280;63015;45.378;20.360;2023-04-07T10:32:15;100746.06;;;7.00;61.21
74542;BME280;63015;45.378;20.360;2023-04-07T10:34:15;100753.94;;;7.06;61.46
74542;BME280;63015;45.378;20.360;2023-04-07T10:36:18;100752.34;;;7.15;61.78
74542;BME280;63015;45.378;20.360;2023-04-07T10:38:22;100752.47;;;7.19;61.44
74542;BME280;63015;45.378;20.360;2023-04-07T10:48:59;100761.50;;;6.53;62.73
74542;BME280;63015;45.378;20.360;2023-04-07T10:53:14;100758.59;;;6.37;63.22
74542;BME280;63015;45.378;20.360;2023-04-07T10:57:37;100760.94;;;6.25;62.90
74542;BME280;63015;45.378;20.360;2023-04-07T10:59:40;100761.16;;;6.36;63.27
74542;BME280;63015;45.378;20.360;2023-04-07T11:01:41;100761.56;;;6.54;63.14
74542;BME280;63015;45.378;20.360;2023-04-07T11:03:52;100758.25;;;6.62;62.84